sensor_id;sensor_type;location;lat;lon;timestamp;P1;durP1;ratioP1;P2;durP2;ratioP2
74042;SDS011;62384;53.600;10.040;2022-10-24T00:02:18;10.07;;;2.28;;
74042;SDS011;62384;53.600;10.040;2022-10-24T00:04:44;4.50;;;1.52;;
74042;SDS011;62384;53.600;10.040;2022-10-24T00:07:09;3.33;;;1.95;;
74042;SDS011;62384;53.600;10.040;2022-10-24T00:09:35;4.28;;;1.80;;
74042;SDS011;62384;53.600;10.040;2022-10-24T00:12:01;4.47;;;2.30;;
74042;SDS011;62384;53.600;10.040;2022-10-24T00:14:28;3.53;;;2.10;;
74042;SDS011;62384;53.600;10.040;2022-10-24T00:16:54;4.90;;;2.42;;
74042;SDS011;62384;53.600;10.040;2022-10-24T00:19:19;5.18;;;1.95;;
74042;SDS011;62384;53.600;10.040;2022-10-24T00:21:44;4.85;;;1.98;;
74042;SDS011;62384;53.600;10.040;2022-10-24T00:24:10;4.25;;;2.28;;
74042;SDS011;62384;53.600;10.040;2022-10-24T00:26:35;5.13;;;1.88;;
74042;SDS011;62384;53.600;10.040;2022-10-24T00:29:01;3.38;;;1.70;;
74042;SDS011;62384;53.600;10.040;2022-10-24T00:31:29;4.80;;;1.77;;
74042;SDS011;62384;53.600;10.040;2022-10-24T00:33:55;4.72;;;1.80;;
74042;SDS011;62384;53.600;10.040;2022-10-24T00:36:21;5.55;;;2.03;;
74042;SDS011;62384;53.600;10.040;2022-10-24T00:38:47;6.68;;;1.90;;
74042;SDS011;62384;53.600;10.040;2022-10-24T00:41:17;6.47;;;2.65;;
74042;SDS011;62384;53.600;10.040;2022-10-24T00:43:46;4.90;;;1.98;;
74042;SDS011;62384;53.600;10.040;2022-10-24T00:46:11;3.10;;;1.58;;
74042;SDS011;62384;53.600;10.040;2022-10-24T00:48:39;2.97;;;1.55;;
74042;SDS011;62384;53.600;10.040;2022-10-24T00:51:20;3.97;;;1.77;;
74042;SDS011;62384;53.600;10.040;2022-10-24T00:53:50;7.43;;;1.70;;
74042;SDS011;62384;53.600;10.040;2022-10-24T00:56:20;5.82;;;1.70;;
74042;SDS011;62384;53.600;10.040;2022-10-24T00:58:49;4.43;;;2.78;;
74042;SDS011;62384;53.600;10.040;2022-10-24T01:01:16;6.43;;;2.40;;
74042;SDS011;62384;53.600;10.040;2022-10-24T01:03:41;5.05;;;1.85;;
74042;SDS011;62384;53.600;10.040;2022-10-24T01:06:11;2.25;;;1.70;;
74042;SDS011;62384;53.600;10.040;2022-10-24T01:08:58;10.68;;;2.25;;
74042;SDS011;62384;53.600;10.040;2022-10-24T01:14:54;4.40;;;1.55;;
74042;SDS011;62384;53.600;10.040;2022-10-24T01:29:11;3.28;;;1.70;;
74042;SDS011;62384;53.600;10.040;2022-10-24T01:34:27;2.20;;;1.60;;
74042;SDS011;62384;53.600;10.040;2022-10-24T01:37:00;6.55;;;1.98;;
74042;SDS011;62384;53.600;10.040;2022-10-24T01:39:31;3.35;;;1.67;;
74042;SDS011;62384;53.600;10.040;2022-10-24T01:42:00;2.75;;;1.90;;
74042;SDS011;62384;53.600;10.040;2022-10-24T01:44:35;4.70;;;1.95;;
74042;SDS011;62384;53.600;10.040;2022-10-24T01:47:11;4.78;;;1.85;;
74042;SDS011;62384;53.600;10.040;2022-10-24T01:49:43;3.78;;;2.17;;
74042;SDS011;62384;53.600;10.040;2022-10-24T01:52:13;3.72;;;1.75;;
74042;SDS011;62384;53.600;10.040;2022-10-24T01:54:40;2.40;;;1.67;;
74042;SDS011;62384;53.600;10.040;2022-10-24T01:57:07;7.20;;;2.25;;
74042;SDS011;62384;53.600;10.040;2022-10-24T02:01:58;2.70;;;1.83;;
74042;SDS011;62384;53.600;10.040;2022-10-24T02:04:30;5.40;;;1.80;;
74042;SDS011;62384;53.600;10.040;2022-10-24T02:06:59;2.25;;;1.70;;
74042;SDS011;62384;53.600;10.040;2022-10-24T02:09:27;9.85;;;3.20;;
74042;SDS011;62384;53.600;10.040;2022-10-24T02:11:54;3.13;;;1.67;;
74042;SDS011;62384;53.600;10.040;2022-10-24T02:14:26;2.83;;;1.80;;
74042;SDS011;62384;53.600;10.040;2022-10-24T02:16:57;3.47;;;1.85;;
74042;SDS011;62384;53.600;10.040;2022-10-24T02:19:23;3.72;;;1.75;;
74042;SDS011;62384;53.600;10.040;2022-10-24T02:21:53;6.25;;;1.70;;
74042;SDS011;62384;53.600;10.040;2022-10-24T02:24:32;3.10;;;1.65;;
74042;SDS011;62384;53.600;10.040;2022-10-24T02:27:13;6.70;;;2.13;;
74042;SDS011;62384;53.600;10.040;2022-10-24T02:29:43;2.13;;;1.48;;
74042;SDS011;62384;53.600;10.040;2022-10-24T02:32:26;4.60;;;1.70;;
74042;SDS011;62384;53.600;10.040;2022-10-24T02:34:55;4.22;;;1.85;;
74042;SDS011;62384;53.600;10.040;2022-10-24T02:37:22;5.63;;;1.70;;
74042;SDS011;62384;53.600;10.040;2022-10-24T02:39:49;2.97;;;2.00;;
74042;SDS011;62384;53.600;10.040;2022-10-24T02:42:16;4.05;;;1.70;;
74042;SDS011;62384;53.600;10.040;2022-10-24T02:44:43;3.08;;;1.52;;
74042;SDS011;62384;53.600;10.040;2022-10-24T02:47:12;3.20;;;1.65;;
74042;SDS011;62384;53.600;10.040;2022-10-24T02:49:40;4.55;;;2.50;;
74042;SDS011;62384;53.600;10.040;2022-10-24T02:52:07;7.57;;;2.67;;
74042;SDS011;62384;53.600;10.040;2022-10-24T02:54:33;3.95;;;1.83;;
74042;SDS011;62384;53.600;10.040;2022-10-24T02:57:00;4.93;;;1.52;;
74042;SDS011;62384;53.600;10.040;2022-10-24T02:59:27;5.00;;;1.85;;
74042;SDS011;62384;53.600;10.040;2022-10-24T03:01:53;4.07;;;2.05;;
74042;SDS011;62384;53.600;10.040;2022-10-24T03:04:18;5.10;;;1.85;;
74042;SDS011;62384;53.600;10.040;2022-10-24T03:06:44;5.03;;;1.73;;
74042;SDS011;62384;53.600;10.040;2022-10-24T03:09:09;5.05;;;2.00;;
74042;SDS011;62384;53.600;10.040;2022-10-24T03:11:34;6.63;;;1.90;;
74042;SDS011;62384;53.600;10.040;2022-10-24T03:13:59;4.30;;;1.77;;
74042;SDS011;62384;53.600;10.040;2022-10-24T03:16:25;5.20;;;1.65;;
74042;SDS011;62384;53.600;10.040;2022-10-24T03:18:51;4.32;;;1.90;;
74042;SDS011;62384;53.600;10.040;2022-10-24T03:21:17;3.65;;;1.65;;
74042;SDS011;62384;53.600;10.040;2022-10-24T03:23:42;4.45;;;2.00;;
74042;SDS011;62384;53.600;10.040;2022-10-24T03:26:07;6.28;;;1.80;;
74042;SDS011;62384;53.600;10.040;2022-10-24T03:28:33;3.83;;;2.00;;
74042;SDS011;62384;53.600;10.040;2022-10-24T03:30:58;3.63;;;2.33;;
74042;SDS011;62384;53.600;10.040;2022-10-24T03:33:23;5.25;;;2.00;;
74042;SDS011;62384;53.600;10.040;2022-10-24T03:35:52;3.17;;;2.03;;
74042;SDS011;62384;53.600;10.040;2022-10-24T03:38:18;6.35;;;2.00;;
74042;SDS011;62384;53.600;10.040;2022-10-24T03:40:44;4.47;;;2.03;;
74042;SDS011;62384;53.600;10.040;2022-10-24T03:43:09;4.35;;;2.17;;
74042;SDS011;62384;53.600;10.040;2022-10-24T03:45:35;3.70;;;1.80;;
74042;SDS011;62384;53.600;10.040;2022-10-24T03:48:01;3.10;;;1.80;;
74042;SDS011;62384;53.600;10.040;2022-10-24T03:50:30;4.13;;;1.80;;
74042;SDS011;62384;53.600;10.040;2022-10-24T03:52:55;4.13;;;2.55;;
74042;SDS011;62384;53.600;10.040;2022-10-24T03:55:20;5.13;;;1.77;;
74042;SDS011;62384;53.600;10.040;2022-10-24T03:57:46;4.95;;;2.08;;
74042;SDS011;62384;53.600;10.040;2022-10-24T04:00:12;8.60;;;2.42;;
74042;SDS011;62384;53.600;10.040;2022-10-24T04:02:38;6.45;;;2.05;;
74042;SDS011;62384;53.600;10.040;2022-10-24T04:05:03;4.28;;;2.10;;
74042;SDS011;62384;53.600;10.040;2022-10-24T04:07:29;5.28;;;2.17;;
74042;SDS011;62384;53.600;10.040;2022-10-24T04:09:55;2.88;;;2.08;;
74042;SDS011;62384;53.600;10.040;2022-10-24T04:12:21;4.80;;;2.00;;
74042;SDS011;62384;53.600;10.040;2022-10-24T04:14:46;3.65;;;1.90;;
74042;SDS011;62384;53.600;10.040;2022-10-24T04:17:12;5.70;;;2.15;;
74042;SDS011;62384;53.600;10.040;2022-10-24T04:19:37;4.20;;;1.75;;
74042;SDS011;62384;53.600;10.040;2022-10-24T04:22:02;3.03;;;2.13;;
74042;SDS011;62384;53.600;10.040;2022-10-24T04:24:28;5.38;;;2.05;;
74042;SDS011;62384;53.600;10.040;2022-10-24T04:26:53;3.38;;;2.30;;
74042;SDS011;62384;53.600;10.040;2022-10-24T04:29:20;6.80;;;2.15;;
74042;SDS011;62384;53.600;10.040;2022-10-24T04:31:45;3.42;;;2.13;;
74042;SDS011;62384;53.600;10.040;2022-10-24T04:34:12;5.85;;;2.42;;
74042;SDS011;62384;53.600;10.040;2022-10-24T04:36:38;5.63;;;2.25;;
74042;SDS011;62384;53.600;10.040;2022-10-24T04:39:03;3.83;;;2.22;;
74042;SDS011;62384;53.600;10.040;2022-10-24T04:41:30;4.25;;;2.20;;
74042;SDS011;62384;53.600;10.040;2022-10-24T04:43:55;3.92;;;2.10;;
74042;SDS011;62384;53.600;10.040;2022-10-24T04:46:20;5.30;;;2.30;;
74042;SDS011;62384;53.600;10.040;2022-10-24T04:48:51;4.70;;;2.22;;
74042;SDS011;62384;53.600;10.040;2022-10-24T04:51:17;4.00;;;2.15;;
74042;SDS011;62384;53.600;10.040;2022-10-24T04:53:43;5.70;;;1.90;;
74042;SDS011;62384;53.600;10.040;2022-10-24T04:56:08;7.10;;;2.20;;
74042;SDS011;62384;53.600;10.040;2022-10-24T04:58:33;8.07;;;2.35;;
74042;SDS011;62384;53.600;10.040;2022-10-24T05:00:59;7.47;;;2.10;;
74042;SDS011;62384;53.600;10.040;2022-10-24T05:03:24;5.50;;;2.00;;
74042;SDS011;62384;53.600;10.040;2022-10-24T05:05:49;5.43;;;2.28;;
74042;SDS011;62384;53.600;10.040;2022-10-24T05:08:15;4.47;;;2.15;;
74042;SDS011;62384;53.600;10.040;2022-10-24T05:10:42;5.15;;;2.25;;
74042;SDS011;62384;53.600;10.040;2022-10-24T05:13:08;3.65;;;2.10;;
74042;SDS011;62384;53.600;10.040;2022-10-24T05:15:34;7.30;;;2.45;;
74042;SDS011;62384;53.600;10.040;2022-10-24T05:17:59;7.32;;;2.33;;
74042;SDS011;62384;53.600;10.040;2022-10-24T05:20:25;8.10;;;2.45;;
74042;SDS011;62384;53.600;10.040;2022-10-24T05:22:51;7.50;;;3.13;;
74042;SDS011;62384;53.600;10.040;2022-10-24T05:25:16;6.47;;;2.20;;
74042;SDS011;62384;53.600;10.040;2022-10-24T05:27:42;10.63;;;2.38;;
74042;SDS011;62384;53.600;10.040;2022-10-24T05:30:07;4.20;;;2.30;;
74042;SDS011;62384;53.600;10.040;2022-10-24T05:32:33;5.55;;;1.95;;
74042;SDS011;62384;53.600;10.040;2022-10-24T05:34:59;6.70;;;2.13;;
74042;SDS011;62384;53.600;10.040;2022-10-24T05:37:24;6.05;;;2.22;;
74042;SDS011;62384;53.600;10.040;2022-10-24T05:39:50;4.40;;;2.30;;
74042;SDS011;62384;53.600;10.040;2022-10-24T05:42:16;7.13;;;2.65;;
74042;SDS011;62384;53.600;10.040;2022-10-24T05:44:41;5.38;;;2.47;;
74042;SDS011;62384;53.600;10.040;2022-10-24T05:47:06;11.98;;;2.53;;
74042;SDS011;62384;53.600;10.040;2022-10-24T05:49:32;9.98;;;2.92;;
74042;SDS011;62384;53.600;10.040;2022-10-24T05:51:57;5.00;;;2.10;;
74042;SDS011;62384;53.600;10.040;2022-10-24T05:54:22;14.32;;;2.72;;
74042;SDS011;62384;53.600;10.040;2022-10-24T05:56:48;13.23;;;2.63;;
74042;SDS011;62384;53.600;10.040;2022-10-24T05:59:13;4.90;;;1.77;;
74042;SDS011;62384;53.600;10.040;2022-10-24T06:01:39;5.00;;;2.03;;
74042;SDS011;62384;53.600;10.040;2022-10-24T06:04:04;8.55;;;2.63;;
74042;SDS011;62384;53.600;10.040;2022-10-24T06:06:30;8.27;;;2.15;;
74042;SDS011;62384;53.600;10.040;2022-10-24T06:08:56;5.88;;;2.67;;
74042;SDS011;62384;53.600;10.040;2022-10-24T06:11:22;6.95;;;2.65;;
74042;SDS011;62384;53.600;10.040;2022-10-24T06:13:47;7.22;;;2.50;;
74042;SDS011;62384;53.600;10.040;2022-10-24T06:16:13;7.95;;;2.15;;
74042;SDS011;62384;53.600;10.040;2022-10-24T06:18:39;8.07;;;2.40;;
74042;SDS011;62384;53.600;10.040;2022-10-24T06:21:06;6.65;;;2.47;;
74042;SDS011;62384;53.600;10.040;2022-10-24T06:23:32;4.22;;;2.00;;
74042;SDS011;62384;53.600;10.040;2022-10-24T06:25:57;7.82;;;2.20;;
74042;SDS011;62384;53.600;10.040;2022-10-24T06:28:23;4.80;;;2.15;;
74042;SDS011;62384;53.600;10.040;2022-10-24T06:30:50;6.82;;;1.92;;
74042;SDS011;62384;53.600;10.040;2022-10-24T06:33:18;9.77;;;2.63;;
74042;SDS011;62384;53.600;10.040;2022-10-24T06:35:44;5.30;;;2.40;;
74042;SDS011;62384;53.600;10.040;2022-10-24T06:38:09;6.93;;;2.53;;
74042;SDS011;62384;53.600;10.040;2022-10-24T06:40:35;3.50;;;2.17;;
74042;SDS011;62384;53.600;10.040;2022-10-24T06:43:03;6.60;;;2.63;;
74042;SDS011;62384;53.600;10.040;2022-10-24T06:45:28;5.15;;;2.50;;
74042;SDS011;62384;53.600;10.040;2022-10-24T06:47:53;5.72;;;2.38;;
74042;SDS011;62384;53.600;10.040;2022-10-24T06:50:20;8.80;;;2.28;;
74042;SDS011;62384;53.600;10.040;2022-10-24T06:52:45;4.85;;;2.17;;
74042;SDS011;62384;53.600;10.040;2022-10-24T06:55:10;4.95;;;2.17;;
74042;SDS011;62384;53.600;10.040;2022-10-24T06:57:35;12.35;;;2.50;;
74042;SDS011;62384;53.600;10.040;2022-10-24T07:00:01;6.18;;;2.28;;
74042;SDS011;62384;53.600;10.040;2022-10-24T07:02:28;23.80;;;3.45;;
74042;SDS011;62384;53.600;10.040;2022-10-24T07:04:53;6.78;;;2.50;;
74042;SDS011;62384;53.600;10.040;2022-10-24T07:07:21;10.07;;;2.30;;
74042;SDS011;62384;53.600;10.040;2022-10-24T07:09:53;5.32;;;2.40;;
74042;SDS011;62384;53.600;10.040;2022-10-24T07:12:21;12.38;;;2.47;;
74042;SDS011;62384;53.600;10.040;2022-10-24T07:14:47;16.10;;;3.40;;
74042;SDS011;62384;53.600;10.040;2022-10-24T07:17:13;11.00;;;2.17;;
74042;SDS011;62384;53.600;10.040;2022-10-24T07:19:38;3.78;;;2.30;;
74042;SDS011;62384;53.600;10.040;2022-10-24T07:22:04;5.07;;;2.00;;
74042;SDS011;62384;53.600;10.040;2022-10-24T07:24:29;4.05;;;2.22;;
74042;SDS011;62384;53.600;10.040;2022-10-24T07:26:55;4.22;;;2.20;;
74042;SDS011;62384;53.600;10.040;2022-10-24T07:29:21;5.68;;;2.58;;
74042;SDS011;62384;53.600;10.040;2022-10-24T07:31:46;6.63;;;2.28;;
74042;SDS011;62384;53.600;10.040;2022-10-24T07:34:12;9.63;;;2.30;;
74042;SDS011;62384;53.600;10.040;2022-10-24T07:36:38;6.32;;;2.00;;
74042;SDS011;62384;53.600;10.040;2022-10-24T07:39:03;6.95;;;2.20;;
74042;SDS011;62384;53.600;10.040;2022-10-24T07:41:29;5.18;;;1.92;;
74042;SDS011;62384;53.600;10.040;2022-10-24T07:43:56;5.60;;;2.17;;
74042;SDS011;62384;53.600;10.040;2022-10-24T07:46:22;9.10;;;1.88;;
74042;SDS011;62384;53.600;10.040;2022-10-24T07:48:50;9.27;;;2.00;;
74042;SDS011;62384;53.600;10.040;2022-10-24T07:51:18;7.10;;;2.50;;
74042;SDS011;62384;53.600;10.040;2022-10-24T07:53:44;8.45;;;2.22;;
74042;SDS011;62384;53.600;10.040;2022-10-24T07:56:10;10.20;;;2.10;;
74042;SDS011;62384;53.600;10.040;2022-10-24T07:58:40;6.15;;;2.65;;
74042;SDS011;62384;53.600;10.040;2022-10-24T08:01:14;4.95;;;2.38;;
74042;SDS011;62384;53.600;10.040;2022-10-24T08:03:41;7.32;;;2.45;;
74042;SDS011;62384;53.600;10.040;2022-10-24T08:06:07;9.82;;;2.13;;
74042;SDS011;62384;53.600;10.040;2022-10-24T08:08:35;7.57;;;2.33;;
74042;SDS011;62384;53.600;10.040;2022-10-24T08:11:00;5.25;;;2.17;;
74042;SDS011;62384;53.600;10.040;2022-10-24T08:13:32;7.22;;;2.10;;
74042;SDS011;62384;53.600;10.040;2022-10-24T08:15:58;7.13;;;1.92;;
74042;SDS011;62384;53.600;10.040;2022-10-24T08:18:23;4.82;;;1.85;;
74042;SDS011;62384;53.600;10.040;2022-10-24T08:20:57;5.97;;;2.00;;
74042;SDS011;62384;53.600;10.040;2022-10-24T08:23:23;5.25;;;1.83;;
74042;SDS011;62384;53.600;10.040;2022-10-24T08:25:49;6.70;;;2.20;;
74042;SDS011;62384;53.600;10.040;2022-10-24T08:28:17;7.35;;;1.67;;
74042;SDS011;62384;53.600;10.040;2022-10-24T08:30:43;9.15;;;2.17;;
74042;SDS011;62384;53.600;10.040;2022-10-24T08:33:09;11.13;;;2.40;;
74042;SDS011;62384;53.600;10.040;2022-10-24T08:35:34;5.75;;;2.00;;
74042;SDS011;62384;53.600;10.040;2022-10-24T08:38:00;5.55;;;2.42;;
74042;SDS011;62384;53.600;10.040;2022-10-24T08:40:26;8.70;;;1.85;;
74042;SDS011;62384;53.600;10.040;2022-10-24T08:42:52;11.02;;;2.28;;
74042;SDS011;62384;53.600;10.040;2022-10-24T08:45:25;4.20;;;1.98;;
74042;SDS011;62384;53.600;10.040;2022-10-24T08:48:06;5.10;;;2.67;;
74042;SDS011;62384;53.600;10.040;2022-10-24T08:50:38;7.38;;;2.10;;
74042;SDS011;62384;53.600;10.040;2022-10-24T08:55:50;9.95;;;1.90;;
74042;SDS011;62384;53.600;10.040;2022-10-24T08:58:24;9.30;;;1.73;;
74042;SDS011;62384;53.600;10.040;2022-10-24T09:00:52;5.55;;;1.58;;
74042;SDS011;62384;53.600;10.040;2022-10-24T09:03:25;6.90;;;1.80;;
74042;SDS011;62384;53.600;10.040;2022-10-24T09:05:56;16.60;;;2.17;;
74042;SDS011;62384;53.600;10.040;2022-10-24T09:08:40;6.45;;;2.00;;
74042;SDS011;62384;53.600;10.040;2022-10-24T09:11:25;5.20;;;1.30;;
74042;SDS011;62384;53.600;10.040;2022-10-24T09:14:14;2.75;;;1.40;;
74042;SDS011;62384;53.600;10.040;2022-10-24T09:16:47;3.67;;;1.30;;
74042;SDS011;62384;53.600;10.040;2022-10-24T09:19:37;5.50;;;1.55;;
74042;SDS011;62384;53.600;10.040;2022-10-24T09:22:03;4.55;;;1.42;;
74042;SDS011;62384;53.600;10.040;2022-10-24T09:24:46;8.35;;;1.80;;
74042;SDS011;62384;53.600;10.040;2022-10-24T09:27:18;4.75;;;1.30;;
74042;SDS011;62384;53.600;10.040;2022-10-24T09:29:46;5.65;;;1.75;;
74042;SDS011;62384;53.600;10.040;2022-10-24T09:32:13;3.95;;;1.35;;
74042;SDS011;62384;53.600;10.040;2022-10-24T09:34:40;5.00;;;1.50;;
74042;SDS011;62384;53.600;10.040;2022-10-24T09:37:06;6.60;;;1.30;;
74042;SDS011;62384;53.600;10.040;2022-10-24T09:39:33;8.93;;;1.20;;
74042;SDS011;62384;53.600;10.040;2022-10-24T09:41:59;6.85;;;1.30;;
74042;SDS011;62384;53.600;10.040;2022-10-24T09:44:29;12.93;;;1.50;;
74042;SDS011;62384;53.600;10.040;2022-10-24T09:46:55;4.25;;;1.40;;
74042;SDS011;62384;53.600;10.040;2022-10-24T09:49:21;5.88;;;1.80;;
74042;SDS011;62384;53.600;10.040;2022-10-24T09:51:58;3.80;;;1.50;;
74042;SDS011;62384;53.600;10.040;2022-10-24T09:54:28;3.00;;;1.45;;
74042;SDS011;62384;53.600;10.040;2022-10-24T10:00:00;4.25;;;0.93;;
74042;SDS011;62384;53.600;10.040;2022-10-24T10:02:30;6.25;;;1.60;;
74042;SDS011;62384;53.600;10.040;2022-10-24T10:07:29;7.18;;;1.40;;
74042;SDS011;62384;53.600;10.040;2022-10-24T10:10:04;2.07;;;1.20;;
74042;SDS011;62384;53.600;10.040;2022-10-24T10:12:48;2.05;;;0.80;;
74042;SDS011;62384;53.600;10.040;2022-10-24T10:17:57;5.78;;;1.10;;
74042;SDS011;62384;53.600;10.040;2022-10-24T10:20:34;8.25;;;1.13;;
74042;SDS011;62384;53.600;10.040;2022-10-24T10:23:14;7.78;;;1.15;;
74042;SDS011;62384;53.600;10.040;2022-10-24T10:25:40;8.05;;;1.17;;
74042;SDS011;62384;53.600;10.040;2022-10-24T10:28:09;3.60;;;1.15;;
74042;SDS011;62384;53.600;10.040;2022-10-24T10:30:47;4.45;;;1.13;;
74042;SDS011;62384;53.600;10.040;2022-10-24T10:33:18;5.68;;;1.40;;
74042;SDS011;62384;53.600;10.040;2022-10-24T10:47:20;8.95;;;1.08;;
74042;SDS011;62384;53.600;10.040;2022-10-24T10:49:47;2.60;;;0.90;;
74042;SDS011;62384;53.600;10.040;2022-10-24T10:52:52;12.07;;;1.17;;
74042;SDS011;62384;53.600;10.040;2022-10-24T10:55:24;6.43;;;1.00;;
74042;SDS011;62384;53.600;10.040;2022-10-24T10:58:08;5.20;;;1.35;;
74042;SDS011;62384;53.600;10.040;2022-10-24T11:00:52;4.05;;;1.25;;
74042;SDS011;62384;53.600;10.040;2022-10-24T11:06:36;6.00;;;1.08;;
74042;SDS011;62384;53.600;10.040;2022-10-24T11:11:53;3.78;;;0.80;;
74042;SDS011;62384;53.600;10.040;2022-10-24T11:17:08;6.53;;;1.30;;
74042;SDS011;62384;53.600;10.040;2022-10-24T11:22:13;6.70;;;1.05;;
74042;SDS011;62384;53.600;10.040;2022-10-24T11:24:44;3.35;;;0.82;;
74042;SDS011;62384;53.600;10.040;2022-10-24T11:27:16;6.20;;;1.08;;
74042;SDS011;62384;53.600;10.040;2022-10-24T11:29:51;6.50;;;0.70;;
74042;SDS011;62384;53.600;10.040;2022-10-24T11:32:22;2.22;;;0.77;;
74042;SDS011;62384;53.600;10.040;2022-10-24T11:37:46;6.18;;;0.70;;
74042;SDS011;62384;53.600;10.040;2022-10-24T11:40:19;3.67;;;0.82;;
74042;SDS011;62384;53.600;10.040;2022-10-24T11:45:51;5.45;;;0.80;;
74042;SDS011;62384;53.600;10.040;2022-10-24T11:48:27;5.40;;;0.70;;
74042;SDS011;62384;53.600;10.040;2022-10-24T11:53:42;1.63;;;0.80;;
74042;SDS011;62384;53.600;10.040;2022-10-24T11:56:26;10.02;;;0.93;;
74042;SDS011;62384;53.600;10.040;2022-10-24T11:59:04;4.53;;;1.20;;
74042;SDS011;62384;53.600;10.040;2022-10-24T12:01:35;2.70;;;0.65;;
74042;SDS011;62384;53.600;10.040;2022-10-24T12:10:15;6.25;;;1.20;;
74042;SDS011;62384;53.600;10.040;2022-10-24T12:15:41;3.67;;;0.82;;
74042;SDS011;62384;53.600;10.040;2022-10-24T12:21:07;2.35;;;0.60;;
74042;SDS011;62384;53.600;10.040;2022-10-24T12:23:38;2.17;;;0.57;;
74042;SDS011;62384;53.600;10.040;2022-10-24T12:26:18;7.20;;;0.80;;
74042;SDS011;62384;53.600;10.040;2022-10-24T12:28:55;4.20;;;1.67;;
74042;SDS011;62384;53.600;10.040;2022-10-24T12:31:25;4.75;;;0.68;;
74042;SDS011;62384;53.600;10.040;2022-10-24T12:44:44;2.53;;;0.70;;
74042;SDS011;62384;53.600;10.040;2022-10-24T12:47:24;1.48;;;0.70;;
74042;SDS011;62384;53.600;10.040;2022-10-24T12:49:52;3.10;;;0.60;;
74042;SDS011;62384;53.600;10.040;2022-10-24T12:54:55;4.57;;;0.63;;
74042;SDS011;62384;53.600;10.040;2022-10-24T12:57:27;1.95;;;0.60;;
74042;SDS011;62384;53.600;10.040;2022-10-24T13:00:02;7.20;;;0.70;;
74042;SDS011;62384;53.600;10.040;2022-10-24T13:06:03;3.65;;;0.80;;
74042;SDS011;62384;53.600;10.040;2022-10-24T13:19:29;3.63;;;0.68;;
74042;SDS011;62384;53.600;10.040;2022-10-24T13:21:58;4.85;;;0.95;;
74042;SDS011;62384;53.600;10.040;2022-10-24T13:24:35;7.95;;;1.92;;
74042;SDS011;62384;53.600;10.040;2022-10-24T13:37:35;5.43;;;0.80;;
74042;SDS011;62384;53.600;10.040;2022-10-24T13:40:13;1.58;;;0.73;;
74042;SDS011;62384;53.600;10.040;2022-10-24T13:42:51;5.03;;;1.15;;
74042;SDS011;62384;53.600;10.040;2022-10-24T13:45:21;2.63;;;0.88;;
74042;SDS011;62384;53.600;10.040;2022-10-24T13:47:49;3.28;;;0.52;;
74042;SDS011;62384;53.600;10.040;2022-10-24T13:50:20;7.63;;;0.73;;
74042;SDS011;62384;53.600;10.040;2022-10-24T13:52:48;4.90;;;1.00;;
74042;SDS011;62384;53.600;10.040;2022-10-24T13:55:25;1.15;;;0.70;;
74042;SDS011;62384;53.600;10.040;2022-10-24T13:58:10;4.57;;;1.30;;
74042;SDS011;62384;53.600;10.040;2022-10-24T14:00:41;4.68;;;0.65;;
74042;SDS011;62384;53.600;10.040;2022-10-24T14:03:15;5.95;;;0.93;;
74042;SDS011;62384;53.600;10.040;2022-10-24T14:05:47;3.13;;;0.70;;
74042;SDS011;62384;53.600;10.040;2022-10-24T14:08:18;5.20;;;0.80;;
74042;SDS011;62384;53.600;10.040;2022-10-24T14:10:46;2.97;;;0.60;;
74042;SDS011;62384;53.600;10.040;2022-10-24T14:13:15;3.80;;;0.50;;
74042;SDS011;62384;53.600;10.040;2022-10-24T14:15:46;2.30;;;0.80;;
74042;SDS011;62384;53.600;10.040;2022-10-24T14:18:18;4.30;;;0.70;;
74042;SDS011;62384;53.600;10.040;2022-10-24T14:20:49;5.75;;;1.25;;
74042;SDS011;62384;53.600;10.040;2022-10-24T14:23:22;4.45;;;0.50;;
74042;SDS011;62384;53.600;10.040;2022-10-24T14:25:52;14.20;;;1.25;;
74042;SDS011;62384;53.600;10.040;2022-10-24T14:28:20;3.83;;;1.10;;
74042;SDS011;62384;53.600;10.040;2022-10-24T14:30:52;5.30;;;1.00;;
74042;SDS011;62384;53.600;10.040;2022-10-24T14:33:21;13.77;;;1.45;;
74042;SDS011;62384;53.600;10.040;2022-10-24T14:35:48;4.28;;;0.73;;
74042;SDS011;62384;53.600;10.040;2022-10-24T14:38:15;4.85;;;0.98;;
74042;SDS011;62384;53.600;10.040;2022-10-24T14:40:42;7.80;;;1.35;;
74042;SDS011;62384;53.600;10.040;2022-10-24T14:43:16;5.15;;;0.77;;
74042;SDS011;62384;53.600;10.040;2022-10-24T14:46:00;6.07;;;0.88;;
74042;SDS011;62384;53.600;10.040;2022-10-24T14:48:30;2.50;;;0.82;;
74042;SDS011;62384;53.600;10.040;2022-10-24T14:51:05;5.22;;;1.00;;
74042;SDS011;62384;53.600;10.040;2022-10-24T14:53:36;3.50;;;0.60;;
74042;SDS011;62384;53.600;10.040;2022-10-24T14:56:16;2.15;;;0.60;;
74042;SDS011;62384;53.600;10.040;2022-10-24T14:58:52;2.90;;;0.60;;
74042;SDS011;62384;53.600;10.040;2022-10-24T15:01:20;4.88;;;0.80;;
74042;SDS011;62384;53.600;10.040;2022-10-24T15:03:54;5.95;;;0.80;;
74042;SDS011;62384;53.600;10.040;2022-10-24T15:06:28;2.47;;;0.88;;
74042;SDS011;62384;53.600;10.040;2022-10-24T15:11:35;4.17;;;0.70;;
74042;SDS011;62384;53.600;10.040;2022-10-24T15:14:05;6.57;;;0.75;;
74042;SDS011;62384;53.600;10.040;2022-10-24T15:19:48;4.20;;;0.88;;
74042;SDS011;62384;53.600;10.040;2022-10-24T15:22:32;2.17;;;0.60;;
74042;SDS011;62384;53.600;10.040;2022-10-24T15:25:01;5.55;;;1.10;;
74042;SDS011;62384;53.600;10.040;2022-10-24T15:30:05;5.50;;;0.98;;
74042;SDS011;62384;53.600;10.040;2022-10-24T15:32:38;3.72;;;0.95;;
74042;SDS011;62384;53.600;10.040;2022-10-24T15:35:03;4.15;;;1.08;;
74042;SDS011;62384;53.600;10.040;2022-10-24T15:37:29;5.35;;;1.20;;
74042;SDS011;62384;53.600;10.040;2022-10-24T15:39:54;2.58;;;0.68;;
74042;SDS011;62384;53.600;10.040;2022-10-24T15:42:20;2.60;;;0.90;;
74042;SDS011;62384;53.600;10.040;2022-10-24T15:44:46;5.28;;;1.70;;
74042;SDS011;62384;53.600;10.040;2022-10-24T15:47:13;6.22;;;1.02;;
74042;SDS011;62384;53.600;10.040;2022-10-24T15:49:38;6.65;;;1.10;;
74042;SDS011;62384;53.600;10.040;2022-10-24T15:52:04;5.80;;;0.70;;
74042;SDS011;62384;53.600;10.040;2022-10-24T15:54:31;2.00;;;0.70;;
74042;SDS011;62384;53.600;10.040;2022-10-24T15:56:57;3.70;;;0.70;;
74042;SDS011;62384;53.600;10.040;2022-10-24T15:59:22;4.07;;;0.60;;
74042;SDS011;62384;53.600;10.040;2022-10-24T16:01:54;4.78;;;0.95;;
74042;SDS011;62384;53.600;10.040;2022-10-24T16:04:24;3.03;;;0.82;;
74042;SDS011;62384;53.600;10.040;2022-10-24T16:06:50;6.03;;;1.05;;
74042;SDS011;62384;53.600;10.040;2022-10-24T16:09:18;5.80;;;0.80;;
74042;SDS011;62384;53.600;10.040;2022-10-24T16:11:45;2.22;;;0.85;;
74042;SDS011;62384;53.600;10.040;2022-10-24T16:14:15;7.07;;;1.10;;
74042;SDS011;62384;53.600;10.040;2022-10-24T16:16:44;4.25;;;1.50;;
74042;SDS011;62384;53.600;10.040;2022-10-24T16:19:09;6.10;;;1.50;;
74042;SDS011;62384;53.600;10.040;2022-10-24T16:21:35;2.42;;;0.93;;
74042;SDS011;62384;53.600;10.040;2022-10-24T16:24:01;3.13;;;0.80;;
74042;SDS011;62384;53.600;10.040;2022-10-24T16:26:32;2.97;;;0.73;;
74042;SDS011;62384;53.600;10.040;2022-10-24T16:28:58;7.03;;;0.98;;
74042;SDS011;62384;53.600;10.040;2022-10-24T16:31:23;5.88;;;0.77;;
74042;SDS011;62384;53.600;10.040;2022-10-24T16:33:49;9.40;;;1.45;;
74042;SDS011;62384;53.600;10.040;2022-10-24T16:36:15;3.55;;;0.90;;
74042;SDS011;62384;53.600;10.040;2022-10-24T16:38:42;6.05;;;1.00;;
74042;SDS011;62384;53.600;10.040;2022-10-24T16:41:15;3.58;;;0.90;;
74042;SDS011;62384;53.600;10.040;2022-10-24T16:43:46;2.45;;;0.93;;
74042;SDS011;62384;53.600;10.040;2022-10-24T16:46:16;5.30;;;1.23;;